sensor_id;sensor_type;location;lat;lon;timestamp;P1;durP1;ratioP1;P2;durP2;ratioP2
26806;SDS011;14380;49.910;6.792;2022-07-01T00:02:15;1.27;;;0.60;;
26806;SDS011;14380;49.910;6.792;2022-07-01T00:04:42;0.40;;;0.40;;
26806;SDS011;14380;49.910;6.792;2022-07-01T00:07:09;1.85;;;0.50;;
26806;SDS011;14380;49.910;6.792;2022-07-01T00:09:36;0.30;;;0.30;;
26806;SDS011;14380;49.910;6.792;2022-07-01T00:12:04;1.08;;;0.60;;
26806;SDS011;14380;49.910;6.792;2022-07-01T00:14:33;1.63;;;0.60;;
26806;SDS011;14380;49.910;6.792;2022-07-01T00:17:00;2.33;;;0.65;;
26806;SDS011;14380;49.910;6.792;2022-07-01T00:19:26;1.35;;;0.60;;
26806;SDS011;14380;49.910;6.792;2022-07-01T00:21:53;4.93;;;0.63;;
26806;SDS011;14380;49.910;6.792;2022-07-01T00:24:20;1.90;;;0.88;;
26806;SDS011;14380;49.910;6.792;2022-07-01T00:26:47;1.23;;;0.63;;
26806;SDS011;14380;49.910;6.792;2022-07-01T00:29:13;1.00;;;0.70;;
26806;SDS011;14380;49.910;6.792;2022-07-01T00:31:42;2.20;;;1.25;;
26806;SDS011;14380;49.910;6.792;2022-07-01T00:34:08;0.75;;;0.60;;
26806;SDS011;14380;49.910;6.792;2022-07-01T00:36:35;1.48;;;0.60;;
26806;SDS011;14380;49.910;6.792;2022-07-01T00:39:02;1.75;;;0.85;;
26806;SDS011;14380;49.910;6.792;2022-07-01T00:41:28;2.47;;;0.68;;
26806;SDS011;14380;49.910;6.792;2022-07-01T00:43:55;1.65;;;0.70;;
26806;SDS011;14380;49.910;6.792;2022-07-01T00:46:23;1.10;;;0.63;;
26806;SDS011;14380;49.910;6.792;2022-07-01T00:48:52;2.45;;;0.57;;
26806;SDS011;14380;49.910;6.792;2022-07-01T00:51:21;1.08;;;0.70;;
26806;SDS011;14380;49.910;6.792;2022-07-01T00:53:48;1.45;;;0.77;;
26806;SDS011;14380;49.910;6.792;2022-07-01T00:56:15;0.93;;;0.80;;
26806;SDS011;14380;49.910;6.792;2022-07-01T00:58:43;4.53;;;0.80;;
26806;SDS011;14380;49.910;6.792;2022-07-01T01:01:11;1.10;;;1.00;;
26806;SDS011;14380;49.910;6.792;2022-07-01T01:03:38;2.33;;;1.42;;
26806;SDS011;14380;49.910;6.792;2022-07-01T01:06:06;3.38;;;1.52;;
26806;SDS011;14380;49.910;6.792;2022-07-01T01:08:33;2.13;;;1.08;;
26806;SDS011;14380;49.910;6.792;2022-07-01T01:10:59;3.60;;;1.42;;
26806;SDS011;14380;49.910;6.792;2022-07-01T01:13:26;0.90;;;0.73;;
26806;SDS011;14380;49.910;6.792;2022-07-01T01:15:53;3.03;;;1.73;;
26806;SDS011;14380;49.910;6.792;2022-07-01T01:18:20;2.65;;;1.75;;
26806;SDS011;14380;49.910;6.792;2022-07-01T01:20:48;3.05;;;1.77;;
26806;SDS011;14380;49.910;6.792;2022-07-01T01:23:14;3.75;;;1.77;;
26806;SDS011;14380;49.910;6.792;2022-07-01T01:25:41;2.72;;;1.88;;
26806;SDS011;14380;49.910;6.792;2022-07-01T01:28:08;3.95;;;2.05;;
26806;SDS011;14380;49.910;6.792;2022-07-01T01:30:35;4.75;;;2.40;;
26806;SDS011;14380;49.910;6.792;2022-07-01T01:33:02;3.25;;;2.15;;
26806;SDS011;14380;49.910;6.792;2022-07-01T01:35:29;4.88;;;2.45;;
26806;SDS011;14380;49.910;6.792;2022-07-01T01:37:58;6.93;;;2.70;;
26806;SDS011;14380;49.910;6.792;2022-07-01T01:40:24;7.15;;;2.75;;
26806;SDS011;14380;49.910;6.792;2022-07-01T01:42:51;3.42;;;2.30;;
26806;SDS011;14380;49.910;6.792;2022-07-01T01:45:18;3.95;;;2.50;;
26806;SDS011;14380;49.910;6.792;2022-07-01T01:47:45;4.70;;;2.47;;
26806;SDS011;14380;49.910;6.792;2022-07-01T01:50:12;3.75;;;2.28;;
26806;SDS011;14380;49.910;6.792;2022-07-01T01:52:41;6.63;;;2.80;;
26806;SDS011;14380;49.910;6.792;2022-07-01T01:55:10;3.03;;;1.73;;
26806;SDS011;14380;49.910;6.792;2022-07-01T01:57:38;2.92;;;1.95;;
26806;SDS011;14380;49.910;6.792;2022-07-01T02:00:05;4.50;;;1.73;;
26806;SDS011;14380;49.910;6.792;2022-07-01T02:02:34;2.88;;;1.83;;
26806;SDS011;14380;49.910;6.792;2022-07-01T02:05:01;4.53;;;2.38;;
26806;SDS011;14380;49.910;6.792;2022-07-01T02:07:28;3.58;;;2.47;;
26806;SDS011;14380;49.910;6.792;2022-07-01T02:09:55;5.18;;;2.63;;
26806;SDS011;14380;49.910;6.792;2022-07-01T02:12:23;3.88;;;2.42;;
26806;SDS011;14380;49.910;6.792;2022-07-01T02:14:50;5.50;;;3.40;;
26806;SDS011;14380;49.910;6.792;2022-07-01T02:17:17;5.72;;;2.10;;
26806;SDS011;14380;49.910;6.792;2022-07-01T02:19:43;3.38;;;1.90;;
26806;SDS011;14380;49.910;6.792;2022-07-01T02:22:10;2.30;;;1.65;;
26806;SDS011;14380;49.910;6.792;2022-07-01T02:24:37;4.93;;;2.55;;
26806;SDS011;14380;49.910;6.792;2022-07-01T02:27:03;3.20;;;2.50;;
26806;SDS011;14380;49.910;6.792;2022-07-01T02:29:32;4.32;;;2.33;;
26806;SDS011;14380;49.910;6.792;2022-07-01T02:31:58;3.35;;;2.15;;
26806;SDS011;14380;49.910;6.792;2022-07-01T02:34:25;5.43;;;2.22;;
26806;SDS011;14380;49.910;6.792;2022-07-01T02:36:52;2.13;;;1.73;;
26806;SDS011;14380;49.910;6.792;2022-07-01T02:39:20;3.60;;;1.92;;
26806;SDS011;14380;49.910;6.792;2022-07-01T02:41:47;4.90;;;2.45;;
26806;SDS011;14380;49.910;6.792;2022-07-01T02:44:33;3.88;;;2.47;;
26806;SDS011;14380;49.910;6.792;2022-07-01T02:47:00;2.90;;;2.03;;
26806;SDS011;14380;49.910;6.792;2022-07-01T02:49:27;4.22;;;2.60;;
26806;SDS011;14380;49.910;6.792;2022-07-01T02:51:53;3.03;;;1.80;;
26806;SDS011;14380;49.910;6.792;2022-07-01T02:54:20;4.22;;;2.42;;
26806;SDS011;14380;49.910;6.792;2022-07-01T02:56:47;3.13;;;2.03;;
26806;SDS011;14380;49.910;6.792;2022-07-01T02:59:13;3.15;;;2.35;;
26806;SDS011;14380;49.910;6.792;2022-07-01T03:01:41;3.55;;;2.40;;
26806;SDS011;14380;49.910;6.792;2022-07-01T03:04:08;4.45;;;2.33;;
26806;SDS011;14380;49.910;6.792;2022-07-01T03:06:35;4.10;;;2.42;;
26806;SDS011;14380;49.910;6.792;2022-07-01T03:09:01;3.53;;;2.10;;
26806;SDS011;14380;49.910;6.792;2022-07-01T03:11:28;2.63;;;1.92;;
26806;SDS011;14380;49.910;6.792;2022-07-01T03:13:55;2.75;;;1.95;;
26806;SDS011;14380;49.910;6.792;2022-07-01T03:16:21;4.05;;;2.35;;
26806;SDS011;14380;49.910;6.792;2022-07-01T03:18:50;2.50;;;2.30;;
26806;SDS011;14380;49.910;6.792;2022-07-01T03:21:16;2.80;;;1.92;;
26806;SDS011;14380;49.910;6.792;2022-07-01T03:23:43;3.92;;;2.25;;
26806;SDS011;14380;49.910;6.792;2022-07-01T03:26:10;2.22;;;2.00;;
26806;SDS011;14380;49.910;6.792;2022-07-01T03:28:36;4.07;;;2.83;;
26806;SDS011;14380;49.910;6.792;2022-07-01T03:31:03;2.47;;;2.28;;
26806;SDS011;14380;49.910;6.792;2022-07-01T03:33:30;3.03;;;2.28;;
26806;SDS011;14380;49.910;6.792;2022-07-01T03:35:58;3.03;;;2.47;;
26806;SDS011;14380;49.910;6.792;2022-07-01T03:38:24;3.50;;;2.40;;
26806;SDS011;14380;49.910;6.792;2022-07-01T03:40:51;3.85;;;2.20;;
26806;SDS011;14380;49.910;6.792;2022-07-01T03:43:18;4.35;;;2.63;;
26806;SDS011;14380;49.910;6.792;2022-07-01T03:45:45;6.78;;;3.05;;
26806;SDS011;14380;49.910;6.792;2022-07-01T03:48:11;3.10;;;2.78;;
26806;SDS011;14380;49.910;6.792;2022-07-01T03:50:38;5.38;;;3.65;;
26806;SDS011;14380;49.910;6.792;2022-07-01T03:53:06;5.18;;;3.30;;
26806;SDS011;14380;49.910;6.792;2022-07-01T03:55:50;4.00;;;3.28;;
26806;SDS011;14380;49.910;6.792;2022-07-01T03:58:17;4.57;;;3.30;;
26806;SDS011;14380;49.910;6.792;2022-07-01T04:00:44;5.00;;;3.30;;
26806;SDS011;14380;49.910;6.792;2022-07-01T04:03:10;3.72;;;2.90;;
26806;SDS011;14380;49.910;6.792;2022-07-01T04:05:37;4.18;;;2.33;;
26806;SDS011;14380;49.910;6.792;2022-07-01T04:08:05;5.32;;;2.60;;
26806;SDS011;14380;49.910;6.792;2022-07-01T04:10:36;4.82;;;2.80;;
26806;SDS011;14380;49.910;6.792;2022-07-01T04:13:03;2.88;;;2.05;;
26806;SDS011;14380;49.910;6.792;2022-07-01T04:15:30;4.28;;;2.78;;
26806;SDS011;14380;49.910;6.792;2022-07-01T04:17:57;5.15;;;2.70;;
26806;SDS011;14380;49.910;6.792;2022-07-01T04:20:24;4.72;;;2.40;;
26806;SDS011;14380;49.910;6.792;2022-07-01T04:22:50;4.70;;;2.38;;
26806;SDS011;14380;49.910;6.792;2022-07-01T04:27:44;4.72;;;2.63;;
26806;SDS011;14380;49.910;6.792;2022-07-01T04:30:11;3.55;;;2.60;;
26806;SDS011;14380;49.910;6.792;2022-07-01T04:32:38;5.20;;;2.60;;
26806;SDS011;14380;49.910;6.792;2022-07-01T04:35:05;4.55;;;2.67;;
26806;SDS011;14380;49.910;6.792;2022-07-01T04:37:31;2.58;;;2.20;;
26806;SDS011;14380;49.910;6.792;2022-07-01T04:39:58;4.22;;;2.47;;
26806;SDS011;14380;49.910;6.792;2022-07-01T04:42:26;4.13;;;3.13;;
26806;SDS011;14380;49.910;6.792;2022-07-01T04:44:52;3.30;;;2.30;;
26806;SDS011;14380;49.910;6.792;2022-07-01T04:47:19;3.22;;;2.03;;
26806;SDS011;14380;49.910;6.792;2022-07-01T04:49:47;3.63;;;2.42;;
26806;SDS011;14380;49.910;6.792;2022-07-01T04:52:14;6.25;;;3.35;;
26806;SDS011;14380;49.910;6.792;2022-07-01T04:54:40;5.28;;;3.00;;
26806;SDS011;14380;49.910;6.792;2022-07-01T04:57:07;4.22;;;2.95;;
26806;SDS011;14380;49.910;6.792;2022-07-01T04:59:35;5.32;;;2.90;;
26806;SDS011;14380;49.910;6.792;2022-07-01T05:02:02;5.32;;;3.20;;
26806;SDS011;14380;49.910;6.792;2022-07-01T05:04:29;3.55;;;2.45;;
26806;SDS011;14380;49.910;6.792;2022-07-01T05:06:56;4.10;;;3.00;;
26806;SDS011;14380;49.910;6.792;2022-07-01T05:09:23;5.13;;;2.50;;
26806;SDS011;14380;49.910;6.792;2022-07-01T05:11:49;3.30;;;2.50;;
26806;SDS011;14380;49.910;6.792;2022-07-01T05:14:16;5.35;;;2.40;;
26806;SDS011;14380;49.910;6.792;2022-07-01T05:16:44;3.63;;;2.40;;
26806;SDS011;14380;49.910;6.792;2022-07-01T05:19:11;2.30;;;1.88;;
26806;SDS011;14380;49.910;6.792;2022-07-01T05:21:55;3.60;;;2.10;;
26806;SDS011;14380;49.910;6.792;2022-07-01T05:24:25;6.10;;;2.75;;
26806;SDS011;14380;49.910;6.792;2022-07-01T05:26:54;5.07;;;2.95;;
26806;SDS011;14380;49.910;6.792;2022-07-01T05:29:21;5.68;;;2.47;;
26806;SDS011;14380;49.910;6.792;2022-07-01T05:31:49;3.72;;;2.55;;
26806;SDS011;14380;49.910;6.792;2022-07-01T05:34:16;4.63;;;2.13;;
26806;SDS011;14380;49.910;6.792;2022-07-01T05:36:42;5.95;;;2.53;;
26806;SDS011;14380;49.910;6.792;2022-07-01T05:39:09;3.47;;;2.20;;
26806;SDS011;14380;49.910;6.792;2022-07-01T05:41:37;6.07;;;2.38;;
26806;SDS011;14380;49.910;6.792;2022-07-01T05:44:03;5.95;;;2.60;;
26806;SDS011;14380;49.910;6.792;2022-07-01T05:46:30;6.45;;;2.20;;
26806;SDS011;14380;49.910;6.792;2022-07-01T05:48:58;7.85;;;2.38;;
26806;SDS011;14380;49.910;6.792;2022-07-01T05:51:25;5.43;;;2.55;;
26806;SDS011;14380;49.910;6.792;2022-07-01T05:53:52;6.15;;;2.55;;
26806;SDS011;14380;49.910;6.792;2022-07-01T05:56:18;6.35;;;2.90;;
26806;SDS011;14380;49.910;6.792;2022-07-01T05:58:45;5.57;;;2.30;;
26806;SDS011;14380;49.910;6.792;2022-07-01T06:01:12;4.65;;;2.42;;
26806;SDS011;14380;49.910;6.792;2022-07-01T06:03:39;4.65;;;1.98;;
26806;SDS011;14380;49.910;6.792;2022-07-01T06:06:07;4.97;;;2.17;;
26806;SDS011;14380;49.910;6.792;2022-07-01T06:08:34;3.85;;;2.33;;
26806;SDS011;14380;49.910;6.792;2022-07-01T06:11:01;7.43;;;2.05;;
26806;SDS011;14380;49.910;6.792;2022-07-01T06:13:28;4.82;;;2.10;;
26806;SDS011;14380;49.910;6.792;2022-07-01T06:15:55;5.18;;;2.17;;
26806;SDS011;14380;49.910;6.792;2022-07-01T06:18:23;4.05;;;2.35;;
26806;SDS011;14380;49.910;6.792;2022-07-01T06:20:50;5.20;;;2.00;;
26806;SDS011;14380;49.910;6.792;2022-07-01T06:23:18;8.10;;;2.00;;
26806;SDS011;14380;49.910;6.792;2022-07-01T06:25:45;6.80;;;2.72;;
26806;SDS011;14380;49.910;6.792;2022-07-01T06:28:12;5.90;;;2.80;;
26806;SDS011;14380;49.910;6.792;2022-07-01T06:30:39;4.35;;;2.10;;
26806;SDS011;14380;49.910;6.792;2022-07-01T06:33:08;7.68;;;2.67;;
26806;SDS011;14380;49.910;6.792;2022-07-01T06:35:35;5.30;;;2.50;;
26806;SDS011;14380;49.910;6.792;2022-07-01T06:38:02;3.97;;;2.08;;
26806;SDS011;14380;49.910;6.792;2022-07-01T06:40:30;4.03;;;1.83;;
26806;SDS011;14380;49.910;6.792;2022-07-01T06:42:57;4.97;;;1.85;;
26806;SDS011;14380;49.910;6.792;2022-07-01T06:45:23;5.28;;;1.67;;
26806;SDS011;14380;49.910;6.792;2022-07-01T06:47:50;4.32;;;1.60;;
26806;SDS011;14380;49.910;6.792;2022-07-01T06:50:16;5.15;;;2.00;;
26806;SDS011;14380;49.910;6.792;2022-07-01T06:52:43;6.72;;;1.60;;
26806;SDS011;14380;49.910;6.792;2022-07-01T06:55:10;2.80;;;1.50;;
26806;SDS011;14380;49.910;6.792;2022-07-01T06:57:38;3.25;;;1.73;;
26806;SDS011;14380;49.910;6.792;2022-07-01T07:00:05;4.65;;;1.50;;
26806;SDS011;14380;49.910;6.792;2022-07-01T07:02:33;5.38;;;2.20;;
26806;SDS011;14380;49.910;6.792;2022-07-01T07:04:59;4.07;;;1.85;;
26806;SDS011;14380;49.910;6.792;2022-07-01T07:07:26;2.35;;;1.40;;
26806;SDS011;14380;49.910;6.792;2022-07-01T07:09:53;2.67;;;1.40;;
26806;SDS011;14380;49.910;6.792;2022-07-01T07:12:21;2.65;;;1.05;;
26806;SDS011;14380;49.910;6.792;2022-07-01T07:14:49;1.67;;;1.20;;
26806;SDS011;14380;49.910;6.792;2022-07-01T07:17:15;3.95;;;1.40;;
26806;SDS011;14380;49.910;6.792;2022-07-01T07:19:42;7.53;;;1.20;;
26806;SDS011;14380;49.910;6.792;2022-07-01T07:22:09;5.85;;;1.48;;
26806;SDS011;14380;49.910;6.792;2022-07-01T07:24:36;4.05;;;1.20;;
26806;SDS011;14380;49.910;6.792;2022-07-01T07:27:03;7.22;;;1.48;;
26806;SDS011;14380;49.910;6.792;2022-07-01T07:29:30;4.00;;;1.10;;
26806;SDS011;14380;49.910;6.792;2022-07-01T07:31:58;4.13;;;1.25;;
26806;SDS011;14380;49.910;6.792;2022-07-01T07:34:25;1.70;;;0.95;;
26806;SDS011;14380;49.910;6.792;2022-07-01T07:36:51;5.05;;;1.00;;
26806;SDS011;14380;49.910;6.792;2022-07-01T07:39:18;4.70;;;1.40;;
26806;SDS011;14380;49.910;6.792;2022-07-01T07:41:45;4.55;;;1.17;;
26806;SDS011;14380;49.910;6.792;2022-07-01T07:44:12;1.65;;;1.08;;
26806;SDS011;14380;49.910;6.792;2022-07-01T07:46:38;2.08;;;0.85;;
26806;SDS011;14380;49.910;6.792;2022-07-01T07:49:06;2.72;;;0.90;;
26806;SDS011;14380;49.910;6.792;2022-07-01T07:51:33;4.85;;;1.00;;
26806;SDS011;14380;49.910;6.792;2022-07-01T07:53:59;1.38;;;0.63;;
26806;SDS011;14380;49.910;6.792;2022-07-01T07:56:27;2.10;;;0.90;;
26806;SDS011;14380;49.910;6.792;2022-07-01T07:58:54;4.20;;;0.80;;
26806;SDS011;14380;49.910;6.792;2022-07-01T08:01:21;3.80;;;0.93;;
26806;SDS011;14380;49.910;6.792;2022-07-01T08:03:47;3.65;;;1.17;;
26806;SDS011;14380;49.910;6.792;2022-07-01T08:06:15;2.30;;;0.88;;
26806;SDS011;14380;49.910;6.792;2022-07-01T08:08:42;2.97;;;0.68;;
26806;SDS011;14380;49.910;6.792;2022-07-01T08:11:10;1.58;;;0.80;;
26806;SDS011;14380;49.910;6.792;2022-07-01T08:13:37;5.55;;;0.88;;
26806;SDS011;14380;49.910;6.792;2022-07-01T08:16:04;1.70;;;0.80;;
26806;SDS011;14380;49.910;6.792;2022-07-01T08:18:30;4.40;;;1.10;;
26806;SDS011;14380;49.910;6.792;2022-07-01T08:20:57;5.78;;;0.80;;
26806;SDS011;14380;49.910;6.792;2022-07-01T08:23:25;8.23;;;1.00;;
26806;SDS011;14380;49.910;6.792;2022-07-01T08:25:52;3.55;;;0.60;;
26806;SDS011;14380;49.910;6.792;2022-07-01T08:28:18;21.15;;;3.03;;
26806;SDS011;14380;49.910;6.792;2022-07-01T08:30:45;2.65;;;0.88;;
26806;SDS011;14380;49.910;6.792;2022-07-01T08:33:12;2.20;;;0.73;;
26806;SDS011;14380;49.910;6.792;2022-07-01T08:35:40;4.20;;;0.57;;
26806;SDS011;14380;49.910;6.792;2022-07-01T08:38:06;6.47;;;0.60;;
26806;SDS011;14380;49.910;6.792;2022-07-01T08:40:35;2.88;;;0.80;;
26806;SDS011;14380;49.910;6.792;2022-07-01T08:43:02;5.30;;;0.80;;
26806;SDS011;14380;49.910;6.792;2022-07-01T08:45:31;4.22;;;0.80;;
26806;SDS011;14380;49.910;6.792;2022-07-01T08:48:00;5.50;;;0.90;;
26806;SDS011;14380;49.910;6.792;2022-07-01T08:50:27;4.85;;;0.90;;
26806;SDS011;14380;49.910;6.792;2022-07-01T08:52:55;1.38;;;0.60;;
26806;SDS011;14380;49.910;6.792;2022-07-01T08:55:22;4.07;;;0.65;;
26806;SDS011;14380;49.910;6.792;2022-07-01T08:57:51;1.58;;;0.70;;
26806;SDS011;14380;49.910;6.792;2022-07-01T09:00:18;2.78;;;0.95;;
26806;SDS011;14380;49.910;6.792;2022-07-01T09:02:48;4.60;;;1.05;;
26806;SDS011;14380;49.910;6.792;2022-07-01T09:05:19;4.47;;;1.00;;
26806;SDS011;14380;49.910;6.792;2022-07-01T09:07:47;3.22;;;0.70;;
26806;SDS011;14380;49.910;6.792;2022-07-01T09:10:15;2.33;;;0.85;;
26806;SDS011;14380;49.910;6.792;2022-07-01T09:12:44;2.92;;;0.55;;
26806;SDS011;14380;49.910;6.792;2022-07-01T09:15:28;2.63;;;0.57;;
26806;SDS011;14380;49.910;6.792;2022-07-01T09:17:56;1.80;;;0.60;;
26806;SDS011;14380;49.910;6.792;2022-07-01T09:20:32;1.58;;;0.40;;
26806;SDS011;14380;49.910;6.792;2022-07-01T09:23:04;1.27;;;0.50;;
26806;SDS011;14380;49.910;6.792;2022-07-01T09:25:33;2.17;;;0.60;;
26806;SDS011;14380;49.910;6.792;2022-07-01T09:28:09;0.90;;;0.30;;
26806;SDS011;14380;49.910;6.792;2022-07-01T09:30:39;2.00;;;0.55;;
26806;SDS011;14380;49.910;6.792;2022-07-01T09:33:07;2.95;;;0.43;;
26806;SDS011;14380;49.910;6.792;2022-07-01T09:35:36;2.47;;;0.55;;
26806;SDS011;14380;49.910;6.792;2022-07-01T09:38:03;114.03;;;11.85;;
26806;SDS011;14380;49.910;6.792;2022-07-01T09:43:18;3.97;;;0.60;;
26806;SDS011;14380;49.910;6.792;2022-07-01T09:45:51;5.28;;;0.57;;
26806;SDS011;14380;49.910;6.792;2022-07-01T09:48:20;2.45;;;0.63;;
26806;SDS011;14380;49.910;6.792;2022-07-01T09:50:48;2.92;;;0.80;;
26806;SDS011;14380;49.910;6.792;2022-07-01T09:53:16;2.45;;;0.77;;
26806;SDS011;14380;49.910;6.792;2022-07-01T09:55:43;0.68;;;0.32;;
26806;SDS011;14380;49.910;6.792;2022-07-01T09:58:10;3.58;;;0.50;;
26806;SDS011;14380;49.910;6.792;2022-07-01T10:00:37;2.97;;;0.50;;
26806;SDS011;14380;49.910;6.792;2022-07-01T10:03:05;3.88;;;0.70;;
26806;SDS011;14380;49.910;6.792;2022-07-01T10:05:36;2.38;;;0.57;;
26806;SDS011;14380;49.910;6.792;2022-07-01T10:08:31;1.30;;;0.40;;
26806;SDS011;14380;49.910;6.792;2022-07-01T10:11:17;1.55;;;0.60;;
26806;SDS011;14380;49.910;6.792;2022-07-01T10:14:05;2.45;;;0.55;;
26806;SDS011;14380;49.910;6.792;2022-07-01T10:16:33;2.72;;;0.47;;
26806;SDS011;14380;49.910;6.792;2022-07-01T10:19:07;2.72;;;0.40;;
26806;SDS011;14380;49.910;6.792;2022-07-01T10:21:51;4.20;;;0.63;;
26806;SDS011;14380;49.910;6.792;2022-07-01T10:24:19;4.50;;;0.80;;
26806;SDS011;14380;49.910;6.792;2022-07-01T10:26:47;4.85;;;0.45;;
26806;SDS011;14380;49.910;6.792;2022-07-01T10:29:28;1.35;;;0.50;;
26806;SDS011;14380;49.910;6.792;2022-07-01T10:31:59;2.63;;;0.40;;
26806;SDS011;14380;49.910;6.792;2022-07-01T10:34:40;2.72;;;0.70;;
26806;SDS011;14380;49.910;6.792;2022-07-01T10:37:09;1.10;;;0.38;;
26806;SDS011;14380;49.910;6.792;2022-07-01T10:39:56;4.10;;;0.50;;
26806;SDS011;14380;49.910;6.792;2022-07-01T10:42:27;1.55;;;0.43;;
26806;SDS011;14380;49.910;6.792;2022-07-01T10:45:02;4.82;;;0.38;;
26806;SDS011;14380;49.910;6.792;2022-07-01T10:47:31;3.42;;;0.40;;
26806;SDS011;14380;49.910;6.792;2022-07-01T10:50:00;2.10;;;0.50;;
26806;SDS011;14380;49.910;6.792;2022-07-01T10:52:30;2.70;;;0.40;;
26806;SDS011;14380;49.910;6.792;2022-07-01T10:55:00;2.75;;;0.20;;
26806;SDS011;14380;49.910;6.792;2022-07-01T10:57:28;4.28;;;0.30;;
26806;SDS011;14380;49.910;6.792;2022-07-01T11:02:55;1.48;;;0.20;;
26806;SDS011;14380;49.910;6.792;2022-07-01T11:05:23;1.38;;;0.30;;
26806;SDS011;14380;49.910;6.792;2022-07-01T11:07:50;1.35;;;0.30;;
26806;SDS011;14380;49.910;6.792;2022-07-01T11:10:17;2.38;;;0.35;;
26806;SDS011;14380;49.910;6.792;2022-07-01T11:12:44;2.38;;;0.30;;
26806;SDS011;14380;49.910;6.792;2022-07-01T11:15:14;0.80;;;0.40;;
26806;SDS011;14380;49.910;6.792;2022-07-01T11:17:42;3.47;;;0.60;;
26806;SDS011;14380;49.910;6.792;2022-07-01T11:20:10;2.75;;;0.40;;
26806;SDS011;14380;49.910;6.792;2022-07-01T11:22:39;1.17;;;0.40;;
26806;SDS011;14380;49.910;6.792;2022-07-01T11:25:07;1.65;;;0.43;;
26806;SDS011;14380;49.910;6.792;2022-07-01T11:27:35;1.08;;;0.20;;
26806;SDS011;14380;49.910;6.792;2022-07-01T11:30:03;2.63;;;0.40;;
26806;SDS011;14380;49.910;6.792;2022-07-01T11:32:34;2.05;;;0.38;;
26806;SDS011;14380;49.910;6.792;2022-07-01T11:35:03;0.60;;;0.20;;
26806;SDS011;14380;49.910;6.792;2022-07-01T11:37:53;1.45;;;0.30;;
26806;SDS011;14380;49.910;6.792;2022-07-01T11:40:48;2.83;;;0.52;;
26806;SDS011;14380;49.910;6.792;2022-07-01T11:43:18;2.95;;;0.20;;
26806;SDS011;14380;49.910;6.792;2022-07-01T11:45:46;1.67;;;0.20;;
26806;SDS011;14380;49.910;6.792;2022-07-01T11:48:27;3.13;;;0.20;;
26806;SDS011;14380;49.910;6.792;2022-07-01T11:50:54;4.28;;;0.43;;
26806;SDS011;14380;49.910;6.792;2022-07-01T11:53:23;0.95;;;0.20;;
26806;SDS011;14380;49.910;6.792;2022-07-01T11:55:50;1.70;;;0.68;;
26806;SDS011;14380;49.910;6.792;2022-07-01T11:58:17;1.88;;;0.60;;
26806;SDS011;14380;49.910;6.792;2022-07-01T12:00:44;1.83;;;0.40;;
26806;SDS011;14380;49.910;6.792;2022-07-01T12:03:10;1.70;;;0.32;;
26806;SDS011;14380;49.910;6.792;2022-07-01T12:05:37;0.80;;;0.25;;
26806;SDS011;14380;49.910;6.792;2022-07-01T12:08:04;1.10;;;0.30;;
26806;SDS011;14380;49.910;6.792;2022-07-01T12:10:33;1.80;;;0.38;;
26806;SDS011;14380;49.910;6.792;2022-07-01T12:13:00;3.05;;;0.40;;
26806;SDS011;14380;49.910;6.792;2022-07-01T12:15:46;2.63;;;0.40;;
26806;SDS011;14380;49.910;6.792;2022-07-01T12:18:14;1.83;;;0.40;;
26806;SDS011;14380;49.910;6.792;2022-07-01T12:20:47;1.70;;;0.32;;
26806;SDS011;14380;49.910;6.792;2022-07-01T12:23:14;2.83;;;0.40;;
26806;SDS011;14380;49.910;6.792;2022-07-01T12:25:47;3.17;;;0.50;;
26806;SDS011;14380;49.910;6.792;2022-07-01T12:28:30;0.32;;;0.20;;
26806;SDS011;14380;49.910;6.792;2022-07-01T12:30:59;1.75;;;0.35;;
26806;SDS011;14380;49.910;6.792;2022-07-01T12:33:31;4.00;;;0.43;;
26806;SDS011;14380;49.910;6.792;2022-07-01T12:36:00;1.70;;;0.50;;
26806;SDS011;14380;49.910;6.792;2022-07-01T12:38:27;2.53;;;0.20;;
26806;SDS011;14380;49.910;6.792;2022-07-01T12:40:56;0.43;;;0.38;;
26806;SDS011;14380;49.910;6.792;2022-07-01T12:43:23;2.03;;;0.45;;
26806;SDS011;14380;49.910;6.792;2022-07-01T12:45:53;2.70;;;0.50;;
26806;SDS011;14380;49.910;6.792;2022-07-01T12:48:20;1.80;;;0.40;;
26806;SDS011;14380;49.910;6.792;2022-07-01T12:50:47;1.90;;;0.40;;
26806;SDS011;14380;49.910;6.792;2022-07-01T12:53:17;1.95;;;0.30;;
26806;SDS011;14380;49.910;6.792;2022-07-01T12:55:45;1.98;;;0.40;;
26806;SDS011;14380;49.910;6.792;2022-07-01T12:58:15;5.07;;;0.50;;
26806;SDS011;14380;49.910;6.792;2022-07-01T13:00:44;2.20;;;0.30;;
26806;SDS011;14380;49.910;6.792;2022-07-01T13:03:12;0.88;;;0.30;;
26806;SDS011;14380;49.910;6.792;2022-07-01T13:05:40;2.67;;;0.50;;
26806;SDS011;14380;49.910;6.792;2022-07-01T13:08:07;2.88;;;0.60;;
26806;SDS011;14380;49.910;6.792;2022-07-01T13:10:35;0.70;;;0.30;;
26806;SDS011;14380;49.910;6.792;2022-07-01T13:13:02;2.70;;;0.30;;
26806;SDS011;14380;49.910;6.792;2022-07-01T13:15:31;1.48;;;0.30;;
26806;SDS011;14380;49.910;6.792;2022-07-01T13:17:59;1.25;;;0.30;;
26806;SDS011;14380;49.910;6.792;2022-07-01T13:20:26;3.13;;;0.85;;
26806;SDS011;14380;49.910;6.792;2022-07-01T13:22:53;1.95;;;0.30;;
26806;SDS011;14380;49.910;6.792;2022-07-01T13:25:20;2.25;;;0.20;;
26806;SDS011;14380;49.910;6.792;2022-07-01T13:27:47;6.78;;;0.40;;
26806;SDS011;14380;49.910;6.792;2022-07-01T13:30:16;0.55;;;0.22;;
26806;SDS011;14380;49.910;6.792;2022-07-01T13:32:44;2.42;;;0.40;;
26806;SDS011;14380;49.910;6.792;2022-07-01T13:35:12;0.75;;;0.20;;
26806;SDS011;14380;49.910;6.792;2022-07-01T13:37:40;4.57;;;0.55;;
26806;SDS011;14380;49.910;6.792;2022-07-01T13:40:07;2.70;;;0.30;;
26806;SDS011;14380;49.910;6.792;2022-07-01T13:42:35;2.05;;;0.32;;
26806;SDS011;14380;49.910;6.792;2022-07-01T13:45:02;3.05;;;0.38;;
26806;SDS011;14380;49.910;6.792;2022-07-01T13:47:29;6.63;;;0.50;;
26806;SDS011;14380;49.910;6.792;2022-07-01T13:49:57;3.72;;;0.60;;
26806;SDS011;14380;49.910;6.792;2022-07-01T13:52:24;4.85;;;0.60;;
26806;SDS011;14380;49.910;6.792;2022-07-01T13:54:53;2.67;;;0.50;;
26806;SDS011;14380;49.910;6.792;2022-07-01T13:57:19;11.13;;;1.00;;
26806;SDS011;14380;49.910;6.792;2022-07-01T13:59:46;3.10;;;0.50;;
26806;SDS011;14380;49.910;6.792;2022-07-01T14:02:13;6.55;;;0.80;;
26806;SDS011;14380;49.910;6.792;2022-07-01T14:04:40;4.80;;;0.52;;
26806;SDS011;14380;49.910;6.792;2022-07-01T14:07:08;3.50;;;0.30;;
26806;SDS011;14380;49.910;6.792;2022-07-01T14:09:35;1.55;;;0.22;;
26806;SDS011;14380;49.910;6.792;2022-07-01T14:12:02;4.50;;;0.20;;
26806;SDS011;14380;49.910;6.792;2022-07-01T14:14:29;2.00;;;0.20;;
26806;SDS011;14380;49.910;6.792;2022-07-01T14:16:56;8.35;;;0.38;;
26806;SDS011;14380;49.910;6.792;2022-07-01T14:19:23;1.20;;;0.30;;
26806;SDS011;14380;49.910;6.792;2022-07-01T14:21:50;0.88;;;0.20;;
26806;SDS011;14380;49.910;6.792;2022-07-01T14:24:18;0.63;;;0.30;;
26806;SDS011;14380;49.910;6.792;2022-07-01T14:26:44;1.27;;;0.30;;
26806;SDS011;14380;49.910;6.792;2022-07-01T14:29:12;2.38;;;0.40;;
26806;SDS011;14380;49.910;6.792;2022-07-01T14:31:38;2.22;;;0.30;;
26806;SDS011;14380;49.910;6.792;2022-07-01T14:34:05;2.03;;;0.30;;
26806;SDS011;14380;49.910;6.792;2022-07-01T14:36:32;2.47;;;0.50;;
26806;SDS011;14380;49.910;6.792;2022-07-01T14:38:58;3.25;;;0.52;;
26806;SDS011;14380;49.910;6.792;2022-07-01T14:41:27;1.30;;;0.20;;
26806;SDS011;14380;49.910;6.792;2022-07-01T14:43:53;0.57;;;0.35;;
26806;SDS011;14380;49.910;6.792;2022-07-01T14:46:20;1.85;;;0.25;;
26806;SDS011;14380;49.910;6.792;2022-07-01T14:48:47;1.27;;;0.20;;
26806;SDS011;14380;49.910;6.792;2022-07-01T14:51:13;2.85;;;0.30;;
26806;SDS011;14380;49.910;6.792;2022-07-01T14:53:40;2.17;;;0.32;;
26806;SDS011;14380;49.910;6.792;2022-07-01T14:56:07;2.35;;;0.10;;
26806;SDS011;14380;49.910;6.792;2022-07-01T14:58:35;5.03;;;0.35;;
26806;SDS011;14380;49.910;6.792;2022-07-01T15:01:02;0.95;;;0.40;;
26806;SDS011;14380;49.910;6.792;2022-07-01T15:03:29;3.30;;;0.40;;